sensor_id;sensor_type;location;lat;lon;timestamp;pressure;altitude;pressure_sealevel;temperature;humidity
49979;BME280;35869;50.990;6.962;2022-08-02T00:01:58;101559.25;;;19.17;64.78
49979;BME280;35869;50.990;6.962;2022-08-02T00:06:58;101554.03;;;19.03;66.34
49979;BME280;35869;50.990;6.962;2022-08-02T00:11:58;101563.28;;;18.96;66.18
49979;BME280;35869;50.990;6.962;2022-08-02T00:16:59;101565.19;;;18.94;66.77
49979;BME280;35869;50.990;6.962;2022-08-02T00:21:59;101565.78;;;18.85;67.21
49979;BME280;35869;50.990;6.962;2022-08-02T00:26:59;101567.97;;;18.78;67.52
49979;BME280;35869;50.990;6.962;2022-08-02T00:32:00;101562.59;;;18.80;66.99
49979;BME280;35869;50.990;6.962;2022-08-02T00:37:00;101567.53;;;18.72;66.29
49979;BME280;35869;50.990;6.962;2022-08-02T00:42:02;101568.56;;;18.69;67.23
49979;BME280;35869;50.990;6.962;2022-08-02T00:47:02;101566.22;;;18.64;67.89
49979;BME280;35869;50.990;6.962;2022-08-02T00:52:02;101560.59;;;18.56;67.80
49979;BME280;35869;50.990;6.962;2022-08-02T00:57:03;101556.66;;;18.49;68.00
49979;BME280;35869;50.990;6.962;2022-08-02T01:02:03;101550.75;;;18.46;67.54
49979;BME280;35869;50.990;6.962;2022-08-02T01:07:04;101555.56;;;18.39;68.06
49979;BME280;35869;50.990;6.962;2022-08-02T01:12:04;101555.75;;;18.36;68.65
49979;BME280;35869;50.990;6.962;2022-08-02T01:17:08;101551.91;;;18.27;69.03
49979;BME280;35869;50.990;6.962;2022-08-02T01:33:05;101543.66;;;18.19;69.38
49979;BME280;35869;50.990;6.962;2022-08-02T01:38:09;101554.47;;;18.15;69.85
49979;BME280;35869;50.990;6.962;2022-08-02T01:43:14;101546.75;;;18.11;69.89
49979;BME280;35869;50.990;6.962;2022-08-02T01:48:14;101541.50;;;18.11;70.15
49979;BME280;35869;50.990;6.962;2022-08-02T01:53:18;101545.47;;;18.04;70.93
49979;BME280;35869;50.990;6.962;2022-08-02T01:58:22;101537.78;;;18.01;71.65
49979;BME280;35869;50.990;6.962;2022-08-02T02:03:24;101540.19;;;18.04;71.34
49979;BME280;35869;50.990;6.962;2022-08-02T02:08:30;101534.09;;;18.04;70.90
49979;BME280;35869;50.990;6.962;2022-08-02T02:13:32;101525.66;;;17.99;71.29
49979;BME280;35869;50.990;6.962;2022-08-02T02:18:38;101521.44;;;17.96;71.44
49979;BME280;35869;50.990;6.962;2022-08-02T02:23:39;101522.00;;;17.87;71.01
49979;BME280;35869;50.990;6.962;2022-08-02T02:28:39;101520.50;;;17.97;72.35
49979;BME280;35869;50.990;6.962;2022-08-02T02:33:49;101517.84;;;17.97;72.58
49979;BME280;35869;50.990;6.962;2022-08-02T02:38:50;101510.91;;;17.82;71.39
49979;BME280;35869;50.990;6.962;2022-08-02T02:43:57;101507.44;;;17.81;70.87
49979;BME280;35869;50.990;6.962;2022-08-02T02:48:59;101516.00;;;17.85;71.40
49979;BME280;35869;50.990;6.962;2022-08-02T02:54:00;101519.66;;;17.82;71.86
49979;BME280;35869;50.990;6.962;2022-08-02T02:59:01;101515.97;;;17.71;72.50
49979;BME280;35869;50.990;6.962;2022-08-02T03:04:03;101511.50;;;17.73;73.22
49979;BME280;35869;50.990;6.962;2022-08-02T03:09:05;101506.13;;;17.74;73.45
49979;BME280;35869;50.990;6.962;2022-08-02T03:14:08;101501.13;;;17.70;73.18
49979;BME280;35869;50.990;6.962;2022-08-02T03:19:09;101493.44;;;17.67;74.40
49979;BME280;35869;50.990;6.962;2022-08-02T03:24:09;101499.06;;;17.61;74.10
49979;BME280;35869;50.990;6.962;2022-08-02T03:29:10;101496.06;;;17.52;73.52
49979;BME280;35869;50.990;6.962;2022-08-02T03:34:10;101495.97;;;17.54;73.32
49979;BME280;35869;50.990;6.962;2022-08-02T03:39:11;101491.84;;;17.50;74.12
49979;BME280;35869;50.990;6.962;2022-08-02T03:44:13;101498.41;;;17.43;74.73
49979;BME280;35869;50.990;6.962;2022-08-02T03:49:14;101503.75;;;17.41;73.92
49979;BME280;35869;50.990;6.962;2022-08-02T03:54:16;101501.78;;;17.30;75.43
49979;BME280;35869;50.990;6.962;2022-08-02T03:59:17;101500.25;;;17.26;75.18
49979;BME280;35869;50.990;6.962;2022-08-02T04:04:17;101500.44;;;17.23;75.11
49979;BME280;35869;50.990;6.962;2022-08-02T04:09:18;101499.00;;;17.18;75.25
49979;BME280;35869;50.990;6.962;2022-08-02T04:14:18;101498.09;;;17.19;75.88
49979;BME280;35869;50.990;6.962;2022-08-02T04:19:20;101505.50;;;17.12;74.83
49979;BME280;35869;50.990;6.962;2022-08-02T04:24:26;101500.16;;;17.14;74.73
49979;BME280;35869;50.990;6.962;2022-08-02T04:29:29;101501.84;;;17.15;74.90
49979;BME280;35869;50.990;6.962;2022-08-02T04:34:30;101511.19;;;17.04;75.25
49979;BME280;35869;50.990;6.962;2022-08-02T04:39:31;101512.88;;;17.05;75.79
49979;BME280;35869;50.990;6.962;2022-08-02T04:44:31;101517.13;;;17.08;74.00
49979;BME280;35869;50.990;6.962;2022-08-02T04:49:32;101512.13;;;17.03;74.52
49979;BME280;35869;50.990;6.962;2022-08-02T04:54:32;101514.97;;;17.00;75.73
49979;BME280;35869;50.990;6.962;2022-08-02T04:59:32;101510.59;;;16.99;75.43
49979;BME280;35869;50.990;6.962;2022-08-02T05:04:32;101513.91;;;17.03;76.01
49979;BME280;35869;50.990;6.962;2022-08-02T05:09:32;101512.41;;;16.99;76.87
49979;BME280;35869;50.990;6.962;2022-08-02T05:14:33;101519.25;;;17.01;75.06
49979;BME280;35869;50.990;6.962;2022-08-02T05:19:33;101520.00;;;17.03;75.34
49979;BME280;35869;50.990;6.962;2022-08-02T05:24:33;101531.56;;;17.01;76.81
49979;BME280;35869;50.990;6.962;2022-08-02T05:29:33;101521.13;;;16.99;73.77
49979;BME280;35869;50.990;6.962;2022-08-02T05:34:34;101522.72;;;17.02;75.14
49979;BME280;35869;50.990;6.962;2022-08-02T05:39:34;101518.31;;;17.02;74.67
49979;BME280;35869;50.990;6.962;2022-08-02T05:44:34;101528.47;;;17.09;76.14
49979;BME280;35869;50.990;6.962;2022-08-02T05:49:34;101517.97;;;17.09;74.74
49979;BME280;35869;50.990;6.962;2022-08-02T05:54:41;101517.78;;;17.12;76.04
49979;BME280;35869;50.990;6.962;2022-08-02T06:00:09;101531.31;;;17.20;73.88
49979;BME280;35869;50.990;6.962;2022-08-02T06:05:13;101534.22;;;17.15;74.17
49979;BME280;35869;50.990;6.962;2022-08-02T06:10:17;101522.31;;;17.24;76.71
49979;BME280;35869;50.990;6.962;2022-08-02T06:15:19;101528.91;;;17.31;74.01
49979;BME280;35869;50.990;6.962;2022-08-02T06:20:19;101522.69;;;17.32;76.50
49979;BME280;35869;50.990;6.962;2022-08-02T06:25:20;101519.72;;;17.38;74.67
49979;BME280;35869;50.990;6.962;2022-08-02T06:30:21;101520.44;;;17.40;74.05
49979;BME280;35869;50.990;6.962;2022-08-02T06:35:21;101518.13;;;17.50;73.42
49979;BME280;35869;50.990;6.962;2022-08-02T06:45:31;101507.69;;;17.63;74.61
49979;BME280;35869;50.990;6.962;2022-08-02T06:50:32;101497.66;;;17.69;75.47
49979;BME280;35869;50.990;6.962;2022-08-02T06:55:32;101516.38;;;17.79;74.85
49979;BME280;35869;50.990;6.962;2022-08-02T07:00:32;101511.47;;;17.87;76.91
49979;BME280;35869;50.990;6.962;2022-08-02T07:05:33;101517.00;;;17.97;76.38
49979;BME280;35869;50.990;6.962;2022-08-02T07:10:34;101522.22;;;18.25;78.54
49979;BME280;35869;50.990;6.962;2022-08-02T07:15:35;101512.44;;;18.27;75.76
49979;BME280;35869;50.990;6.962;2022-08-02T07:20:36;101511.34;;;18.44;77.85
49979;BME280;35869;50.990;6.962;2022-08-02T07:25:36;101507.34;;;18.38;75.52
49979;BME280;35869;50.990;6.962;2022-08-02T07:30:37;101499.38;;;18.80;79.61
49979;BME280;35869;50.990;6.962;2022-08-02T07:35:37;101504.59;;;18.94;76.63
49979;BME280;35869;50.990;6.962;2022-08-02T07:40:37;101496.38;;;18.99;75.25
49979;BME280;35869;50.990;6.962;2022-08-02T07:45:38;101499.97;;;19.10;75.83
49979;BME280;35869;50.990;6.962;2022-08-02T07:50:38;101502.53;;;19.25;74.90
49979;BME280;35869;50.990;6.962;2022-08-02T07:55:38;101496.19;;;19.40;75.82
49979;BME280;35869;50.990;6.962;2022-08-02T08:00:40;101492.63;;;19.66;75.60
49979;BME280;35869;50.990;6.962;2022-08-02T08:05:40;101492.91;;;19.75;72.89
49979;BME280;35869;50.990;6.962;2022-08-02T08:10:41;101480.31;;;19.91;73.00
49979;BME280;35869;50.990;6.962;2022-08-02T08:15:41;101478.47;;;20.17;71.66
49979;BME280;35869;50.990;6.962;2022-08-02T08:20:41;101484.47;;;20.43;71.62
49979;BME280;35869;50.990;6.962;2022-08-02T08:25:42;101474.31;;;20.26;70.88
49979;BME280;35869;50.990;6.962;2022-08-02T08:30:42;101471.63;;;20.62;70.20
49979;BME280;35869;50.990;6.962;2022-08-02T08:35:42;101476.19;;;20.60;70.77
49979;BME280;35869;50.990;6.962;2022-08-02T08:40:42;101468.34;;;20.83;69.54
49979;BME280;35869;50.990;6.962;2022-08-02T08:45:44;101472.72;;;21.06;68.85
49979;BME280;35869;50.990;6.962;2022-08-02T08:50:49;101459.06;;;21.46;68.48
49979;BME280;35869;50.990;6.962;2022-08-02T08:55:52;101466.34;;;21.20;68.12
49979;BME280;35869;50.990;6.962;2022-08-02T09:00:53;101456.06;;;21.62;67.99
49979;BME280;35869;50.990;6.962;2022-08-02T09:05:56;101450.47;;;21.98;66.58
49979;BME280;35869;50.990;6.962;2022-08-02T09:10:57;101443.56;;;22.29;66.36
49979;BME280;35869;50.990;6.962;2022-08-02T09:15:59;101439.66;;;22.86;62.68
49979;BME280;35869;50.990;6.962;2022-08-02T09:21:02;101429.69;;;23.21;61.88
49979;BME280;35869;50.990;6.962;2022-08-02T09:26:08;101419.84;;;23.63;62.02
49979;BME280;35869;50.990;6.962;2022-08-02T09:31:20;101419.34;;;24.08;61.26
49979;BME280;35869;50.990;6.962;2022-08-02T09:36:21;101418.09;;;23.92;64.77
49979;BME280;35869;50.990;6.962;2022-08-02T09:41:30;101409.28;;;24.69;61.24
49979;BME280;35869;50.990;6.962;2022-08-02T09:46:33;101410.13;;;24.60;63.93
49979;BME280;35869;50.990;6.962;2022-08-02T09:51:38;101410.06;;;25.36;61.69
49979;BME280;35869;50.990;6.962;2022-08-02T09:56:47;101411.91;;;26.09;56.05
49979;BME280;35869;50.990;6.962;2022-08-02T10:01:48;101407.56;;;25.90;58.62
49979;BME280;35869;50.990;6.962;2022-08-02T10:06:50;101398.72;;;26.43;58.87
49979;BME280;35869;50.990;6.962;2022-08-02T10:11:50;101385.63;;;26.31;57.20
49979;BME280;35869;50.990;6.962;2022-08-02T10:16:52;101383.75;;;26.68;56.14
49979;BME280;35869;50.990;6.962;2022-08-02T10:22:05;101389.97;;;26.15;51.96
49979;BME280;35869;50.990;6.962;2022-08-02T10:27:19;101378.31;;;26.51;52.93
49979;BME280;35869;50.990;6.962;2022-08-02T10:32:32;101378.69;;;26.56;52.86
49979;BME280;35869;50.990;6.962;2022-08-02T10:37:34;101368.06;;;26.65;51.26
49979;BME280;35869;50.990;6.962;2022-08-02T10:42:43;101372.38;;;27.09;51.33
49979;BME280;35869;50.990;6.962;2022-08-02T10:53:30;101371.69;;;27.66;51.41
49979;BME280;35869;50.990;6.962;2022-08-02T10:58:32;101351.81;;;27.44;49.52
49979;BME280;35869;50.990;6.962;2022-08-02T11:03:40;101354.25;;;27.80;50.57
49979;BME280;35869;50.990;6.962;2022-08-02T11:08:40;101346.44;;;28.35;50.41
49979;BME280;35869;50.990;6.962;2022-08-02T11:29:37;101333.78;;;28.93;45.25
49979;BME280;35869;50.990;6.962;2022-08-02T11:34:38;101337.13;;;28.79;44.56
49979;BME280;35869;50.990;6.962;2022-08-02T11:39:38;101338.63;;;29.68;42.96
49979;BME280;35869;50.990;6.962;2022-08-02T11:44:40;101343.84;;;29.61;44.61
49979;BME280;35869;50.990;6.962;2022-08-02T11:49:40;101336.97;;;29.67;43.36
49979;BME280;35869;50.990;6.962;2022-08-02T11:54:42;101340.75;;;29.41;42.06
49979;BME280;35869;50.990;6.962;2022-08-02T11:59:43;101330.41;;;30.15;44.36
49979;BME280;35869;50.990;6.962;2022-08-02T12:04:51;101335.03;;;29.76;41.89
49979;BME280;35869;50.990;6.962;2022-08-02T12:09:51;101312.13;;;30.63;41.46
49979;BME280;35869;50.990;6.962;2022-08-02T12:14:52;101325.50;;;30.19;44.88
49979;BME280;35869;50.990;6.962;2022-08-02T12:19:52;101326.22;;;30.13;44.07
49979;BME280;35869;50.990;6.962;2022-08-02T12:24:55;101319.88;;;30.06;43.70
49979;BME280;35869;50.990;6.962;2022-08-02T12:40:30;101318.66;;;29.93;43.58
49979;BME280;35869;50.990;6.962;2022-08-02T12:45:43;101317.78;;;29.55;42.33
49979;BME280;35869;50.990;6.962;2022-08-02T12:50:43;101315.97;;;29.70;42.42
49979;BME280;35869;50.990;6.962;2022-08-02T13:00:58;101304.53;;;30.22;42.57
49979;BME280;35869;50.990;6.962;2022-08-02T13:05:58;101297.84;;;30.18;43.66
49979;BME280;35869;50.990;6.962;2022-08-02T13:10:59;101296.91;;;30.11;41.97
49979;BME280;35869;50.990;6.962;2022-08-02T13:15:59;101293.47;;;29.80;40.74
49979;BME280;35869;50.990;6.962;2022-08-02T13:21:00;101288.84;;;29.73;41.52
49979;BME280;35869;50.990;6.962;2022-08-02T13:26:01;101285.56;;;30.53;41.74
49979;BME280;35869;50.990;6.962;2022-08-02T13:31:01;101290.09;;;30.23;40.75
49979;BME280;35869;50.990;6.962;2022-08-02T13:36:02;101287.88;;;30.42;40.91
49979;BME280;35869;50.990;6.962;2022-08-02T13:41:03;101273.50;;;30.72;41.00
49979;BME280;35869;50.990;6.962;2022-08-02T13:46:04;101266.09;;;30.74;40.04
49979;BME280;35869;50.990;6.962;2022-08-02T13:51:05;101268.72;;;30.30;40.43
49979;BME280;35869;50.990;6.962;2022-08-02T13:56:05;101265.50;;;30.64;40.28
49979;BME280;35869;50.990;6.962;2022-08-02T14:01:05;101258.19;;;30.88;40.82
49979;BME280;35869;50.990;6.962;2022-08-02T14:06:06;101249.34;;;31.09;39.28
49979;BME280;35869;50.990;6.962;2022-08-02T14:11:06;101250.06;;;30.81;39.99
49979;BME280;35869;50.990;6.962;2022-08-02T14:16:06;101249.28;;;31.02;37.99
49979;BME280;35869;50.990;6.962;2022-08-02T14:21:06;101249.19;;;30.95;40.01
49979;BME280;35869;50.990;6.962;2022-08-02T14:26:07;101253.09;;;30.93;39.97
49979;BME280;35869;50.990;6.962;2022-08-02T14:31:07;101248.22;;;30.82;39.97
49979;BME280;35869;50.990;6.962;2022-08-02T14:36:07;101248.63;;;31.00;40.34
49979;BME280;35869;50.990;6.962;2022-08-02T14:41:07;101245.00;;;31.08;40.44
49979;BME280;35869;50.990;6.962;2022-08-02T14:46:08;101235.41;;;30.98;40.44
49979;BME280;35869;50.990;6.962;2022-08-02T14:51:08;101221.34;;;30.96;39.69
49979;BME280;35869;50.990;6.962;2022-08-02T14:56:08;101227.47;;;30.75;39.23
49979;BME280;35869;50.990;6.962;2022-08-02T15:01:09;101224.25;;;30.80;39.22
49979;BME280;35869;50.990;6.962;2022-08-02T15:06:09;101214.34;;;30.81;40.17
49979;BME280;35869;50.990;6.962;2022-08-02T15:11:09;101207.78;;;31.04;40.99
49979;BME280;35869;50.990;6.962;2022-08-02T15:16:10;101206.22;;;30.74;38.61
49979;BME280;35869;50.990;6.962;2022-08-02T15:21:10;101209.00;;;31.02;39.53
49979;BME280;35869;50.990;6.962;2022-08-02T15:26:10;101192.19;;;31.15;40.25
49979;BME280;35869;50.990;6.962;2022-08-02T15:31:11;101196.28;;;31.11;39.77
49979;BME280;35869;50.990;6.962;2022-08-02T15:36:11;101195.06;;;31.13;37.30
49979;BME280;35869;50.990;6.962;2022-08-02T15:41:11;101199.41;;;30.93;39.13
49979;BME280;35869;50.990;6.962;2022-08-02T15:46:12;101195.00;;;30.85;41.28
49979;BME280;35869;50.990;6.962;2022-08-02T15:51:12;101192.53;;;30.69;39.78
49979;BME280;35869;50.990;6.962;2022-08-02T15:56:12;101191.84;;;30.82;39.93
49979;BME280;35869;50.990;6.962;2022-08-02T16:01:12;101188.44;;;30.73;41.30
49979;BME280;35869;50.990;6.962;2022-08-02T16:06:13;101185.47;;;30.68;39.64
49979;BME280;35869;50.990;6.962;2022-08-02T16:11:13;101178.25;;;30.53;40.37
49979;BME280;35869;50.990;6.962;2022-08-02T16:16:13;101177.50;;;30.60;39.93
49979;BME280;35869;50.990;6.962;2022-08-02T16:21:13;101171.31;;;30.59;40.29
49979;BME280;35869;50.990;6.962;2022-08-02T16:26:14;101176.06;;;30.42;40.27
49979;BME280;35869;50.990;6.962;2022-08-02T16:31:14;101168.66;;;30.44;40.04
49979;BME280;35869;50.990;6.962;2022-08-02T16:36:14;101170.53;;;30.29;40.31
49979;BME280;35869;50.990;6.962;2022-08-02T16:41:14;101167.88;;;30.14;39.86
49979;BME280;35869;50.990;6.962;2022-08-02T16:46:15;101161.44;;;30.00;39.98
49979;BME280;35869;50.990;6.962;2022-08-02T16:51:15;101160.69;;;30.07;39.71
49979;BME280;35869;50.990;6.962;2022-08-02T16:56:16;101153.22;;;30.02;41.07
49979;BME280;35869;50.990;6.962;2022-08-02T17:01:16;101145.91;;;29.96;39.76
49979;BME280;35869;50.990;6.962;2022-08-02T17:06:16;101143.50;;;29.86;39.38
49979;BME280;35869;50.990;6.962;2022-08-02T17:11:17;101148.09;;;29.63;40.61
49979;BME280;35869;50.990;6.962;2022-08-02T17:16:17;101152.09;;;29.67;41.08
49979;BME280;35869;50.990;6.962;2022-08-02T17:21:17;101153.56;;;29.46;40.28
49979;BME280;35869;50.990;6.962;2022-08-02T17:26:17;101152.63;;;29.62;40.73
49979;BME280;35869;50.990;6.962;2022-08-02T17:31:18;101151.84;;;29.54;41.13
49979;BME280;35869;50.990;6.962;2022-08-02T17:36:18;101143.81;;;29.31;40.49
49979;BME280;35869;50.990;6.962;2022-08-02T17:41:18;101154.63;;;29.37;41.46
49979;BME280;35869;50.990;6.962;2022-08-02T17:46:19;101144.53;;;29.25;42.08
49979;BME280;35869;50.990;6.962;2022-08-02T17:51:19;101145.03;;;29.05;40.85
49979;BME280;35869;50.990;6.962;2022-08-02T17:56:19;101144.69;;;29.08;41.89
49979;BME280;35869;50.990;6.962;2022-08-02T18:01:19;101142.53;;;29.04;41.81
49979;BME280;35869;50.990;6.962;2022-08-02T18:06:20;101143.09;;;28.91;41.77
49979;BME280;35869;50.990;6.962;2022-08-02T18:11:20;101147.44;;;28.92;42.44
49979;BME280;35869;50.990;6.962;2022-08-02T18:16:20;101143.66;;;28.78;42.29
49979;BME280;35869;50.990;6.962;2022-08-02T18:21:22;101147.16;;;28.79;42.49
49979;BME280;35869;50.990;6.962;2022-08-02T18:26:22;101145.91;;;28.66;42.90
49979;BME280;35869;50.990;6.962;2022-08-02T18:31:22;101156.59;;;28.66;43.09
49979;BME280;35869;50.990;6.962;2022-08-02T18:36:23;101155.38;;;28.46;43.48
49979;BME280;35869;50.990;6.962;2022-08-02T18:41:23;101157.53;;;28.51;43.43
49979;BME280;35869;50.990;6.962;2022-08-02T18:46:23;101152.91;;;28.36;44.02
49979;BME280;35869;50.990;6.962;2022-08-02T18:51:24;101156.97;;;28.32;43.80
49979;BME280;35869;50.990;6.962;2022-08-02T18:56:24;101153.09;;;28.19;43.90
49979;BME280;35869;50.990;6.962;2022-08-02T19:01:25;101161.63;;;28.14;44.24
49979;BME280;35869;50.990;6.962;2022-08-02T19:06:31;101157.66;;;28.02;44.70
49979;BME280;35869;50.990;6.962;2022-08-02T19:11:32;101154.53;;;27.90;45.36
49979;BME280;35869;50.990;6.962;2022-08-02T19:16:32;101155.88;;;27.78;45.35
49979;BME280;35869;50.990;6.962;2022-08-02T19:21:32;101161.91;;;27.63;45.85
49979;BME280;35869;50.990;6.962;2022-08-02T19:26:33;101158.22;;;27.48;46.33
49979;BME280;35869;50.990;6.962;2022-08-02T19:31:33;101171.25;;;27.35;46.88
49979;BME280;35869;50.990;6.962;2022-08-02T19:36:33;101171.56;;;27.24;46.72
49979;BME280;35869;50.990;6.962;2022-08-02T19:41:33;101169.88;;;27.15;46.50
49979;BME280;35869;50.990;6.962;2022-08-02T19:46:34;101179.69;;;26.98;46.75
49979;BME280;35869;50.990;6.962;2022-08-02T19:51:34;101173.13;;;26.84;47.33
49979;BME280;35869;50.990;6.962;2022-08-02T19:56:34;101183.44;;;26.71;48.35
49979;BME280;35869;50.990;6.962;2022-08-02T20:01:34;101187.38;;;26.58;47.63
49979;BME280;35869;50.990;6.962;2022-08-02T20:06:34;101191.66;;;26.43;48.70
49979;BME280;35869;50.990;6.962;2022-08-02T20:11:35;101190.22;;;26.31;48.16
49979;BME280;35869;50.990;6.962;2022-08-02T20:16:35;101190.81;;;26.17;48.18
49979;BME280;35869;50.990;6.962;2022-08-02T20:21:35;101194.59;;;26.06;48.38
49979;BME280;35869;50.990;6.962;2022-08-02T20:26:37;101196.00;;;25.92;48.74
49979;BME280;35869;50.990;6.962;2022-08-02T20:31:37;101201.59;;;25.81;48.79
49979;BME280;35869;50.990;6.962;2022-08-02T20:36:37;101198.75;;;25.65;49.12
49979;BME280;35869;50.990;6.962;2022-08-02T20:41:37;101199.66;;;25.56;49.20
49979;BME280;35869;50.990;6.962;2022-08-02T20:46:38;101204.41;;;25.44;49.28
49979;BME280;35869;50.990;6.962;2022-08-02T20:51:39;101199.63;;;25.30;49.82
49979;BME280;35869;50.990;6.962;2022-08-02T20:56:39;101198.00;;;25.19;49.67
49979;BME280;35869;50.990;6.962;2022-08-02T21:01:39;101198.22;;;25.08;50.26
49979;BME280;35869;50.990;6.962;2022-08-02T21:06:39;101207.53;;;24.94;51.02
49979;BME280;35869;50.990;6.962;2022-08-02T21:11:40;101205.75;;;24.85;50.94
49979;BME280;35869;50.990;6.962;2022-08-02T21:16:40;101208.78;;;24.72;51.54
49979;BME280;35869;50.990;6.962;2022-08-02T21:21:40;101211.63;;;24.61;51.68
49979;BME280;35869;50.990;6.962;2022-08-02T21:26:40;101209.16;;;24.50;51.64
49979;BME280;35869;50.990;6.962;2022-08-02T21:31:41;101212.53;;;24.42;51.64
49979;BME280;35869;50.990;6.962;2022-08-02T21:36:41;101213.53;;;24.31;52.62
49979;BME280;35869;50.990;6.962;2022-08-02T21:41:41;101215.38;;;24.21;52.05
49979;BME280;35869;50.990;6.962;2022-08-02T21:46:43;101207.41;;;24.21;52.37
49979;BME280;35869;50.990;6.962;2022-08-02T21:51:43;101212.91;;;24.10;52.80
49979;BME280;35869;50.990;6.962;2022-08-02T21:56:44;101220.59;;;24.03;52.87
49979;BME280;35869;50.990;6.962;2022-08-02T22:01:44;101224.38;;;23.91;54.71
49979;BME280;35869;50.990;6.962;2022-08-02T22:06:44;101222.03;;;23.78;54.53
49979;BME280;35869;50.990;6.962;2022-08-02T22:11:45;101216.31;;;23.83;54.66
49979;BME280;35869;50.990;6.962;2022-08-02T22:16:45;101228.88;;;23.71;55.42
49979;BME280;35869;50.990;6.962;2022-08-02T22:21:45;101228.19;;;23.69;55.28
49979;BME280;35869;50.990;6.962;2022-08-02T22:26:46;101226.81;;;23.65;55.69
49979;BME280;35869;50.990;6.962;2022-08-02T22:31:46;101237.78;;;23.60;55.69
49979;BME280;35869;50.990;6.962;2022-08-02T22:36:46;101231.63;;;23.50;56.82
49979;BME280;35869;50.990;6.962;2022-08-02T22:41:47;101234.28;;;23.50;56.63
49979;BME280;35869;50.990;6.962;2022-08-02T22:46:47;101239.72;;;23.39;57.33
49979;BME280;35869;50.990;6.962;2022-08-02T22:51:48;101243.38;;;23.38;57.09
49979;BME280;35869;50.990;6.962;2022-08-02T22:56:48;101247.69;;;23.29;57.49
49979;BME280;35869;50.990;6.962;2022-08-02T23:01:48;101242.94;;;23.23;57.83
49979;BME280;35869;50.990;6.962;2022-08-02T23:06:48;101249.19;;;23.12;58.72
49979;BME280;35869;50.990;6.962;2022-08-02T23:11:49;101245.53;;;23.04;58.54
49979;BME280;35869;50.990;6.962;2022-08-02T23:16:49;101247.63;;;23.00;58.89
49979;BME280;35869;50.990;6.962;2022-08-02T23:21:49;101240.53;;;23.01;59.16
49979;BME280;35869;50.990;6.962;2022-08-02T23:26:49;101249.16;;;22.93;58.97
49979;BME280;35869;50.990;6.962;2022-08-02T23:31:50;101247.97;;;22.86;59.55
49979;BME280;35869;50.990;6.962;2022-08-02T23:36:50;101252.13;;;22.79;60.16
49979;BME280;35869;50.990;6.962;2022-08-02T23:41:50;101245.56;;;22.73;60.61
49979;BME280;35869;50.990;6.962;2022-08-02T23:46:51;101244.28;;;22.68;60.49
49979;BME280;35869;50.990;6.962;2022-08-02T23:51:53;101245.63;;;22.62;61.40
49979;BME280;35869;50.990;6.962;2022-08-02T23:56:53;101240.63;;;22.59;61.92
